sensor_id;sensor_type;location;lat;lon;timestamp;P1;durP1;ratioP1;P2;durP2;ratioP2
59028;SDS011;45919;51.420;5.454;2022-09-12T00:01:02;31.23;;;20.35;;
59028;SDS011;45919;51.420;5.454;2022-09-12T00:02:09;34.08;;;20.48;;
59028;SDS011;45919;51.420;5.454;2022-09-12T00:03:10;33.63;;;21.27;;
59028;SDS011;45919;51.420;5.454;2022-09-12T00:04:12;34.92;;;21.95;;
59028;SDS011;45919;51.420;5.454;2022-09-12T00:05:14;31.33;;;21.83;;
59028;SDS011;45919;51.420;5.454;2022-09-12T00:06:20;34.83;;;21.83;;
59028;SDS011;45919;51.420;5.454;2022-09-12T00:07:23;34.58;;;21.00;;
59028;SDS011;45919;51.420;5.454;2022-09-12T00:08:25;33.50;;;21.25;;
59028;SDS011;45919;51.420;5.454;2022-09-12T00:09:26;36.15;;;21.98;;
59028;SDS011;45919;51.420;5.454;2022-09-12T00:10:28;34.08;;;22.50;;
59028;SDS011;45919;51.420;5.454;2022-09-12T00:11:29;36.90;;;22.33;;
59028;SDS011;45919;51.420;5.454;2022-09-12T00:12:31;35.25;;;22.65;;
59028;SDS011;45919;51.420;5.454;2022-09-12T00:13:33;38.65;;;23.30;;
59028;SDS011;45919;51.420;5.454;2022-09-12T00:14:37;36.10;;;22.60;;
59028;SDS011;45919;51.420;5.454;2022-09-12T00:15:39;34.00;;;22.13;;
59028;SDS011;45919;51.420;5.454;2022-09-12T00:16:42;38.28;;;23.30;;
59028;SDS011;45919;51.420;5.454;2022-09-12T00:17:44;37.42;;;22.70;;
59028;SDS011;45919;51.420;5.454;2022-09-12T00:18:46;36.53;;;21.95;;
59028;SDS011;45919;51.420;5.454;2022-09-12T00:19:48;34.08;;;22.02;;
59028;SDS011;45919;51.420;5.454;2022-09-12T00:20:49;37.05;;;22.17;;
59028;SDS011;45919;51.420;5.454;2022-09-12T00:21:51;34.35;;;21.98;;
59028;SDS011;45919;51.420;5.454;2022-09-12T00:22:52;33.78;;;21.02;;
59028;SDS011;45919;51.420;5.454;2022-09-12T00:23:54;34.60;;;20.70;;
59028;SDS011;45919;51.420;5.454;2022-09-12T00:24:56;35.92;;;22.10;;
59028;SDS011;45919;51.420;5.454;2022-09-12T00:25:57;33.08;;;21.10;;
59028;SDS011;45919;51.420;5.454;2022-09-12T00:26:59;36.45;;;21.73;;
59028;SDS011;45919;51.420;5.454;2022-09-12T00:28:01;33.35;;;20.60;;
59028;SDS011;45919;51.420;5.454;2022-09-12T00:29:03;35.35;;;22.05;;
59028;SDS011;45919;51.420;5.454;2022-09-12T00:30:04;33.97;;;21.65;;
59028;SDS011;45919;51.420;5.454;2022-09-12T00:31:08;38.13;;;22.67;;
59028;SDS011;45919;51.420;5.454;2022-09-12T00:32:12;34.47;;;22.63;;
59028;SDS011;45919;51.420;5.454;2022-09-12T00:33:14;33.03;;;21.27;;
59028;SDS011;45919;51.420;5.454;2022-09-12T00:34:17;33.97;;;21.83;;
59028;SDS011;45919;51.420;5.454;2022-09-12T00:35:18;38.22;;;23.02;;
59028;SDS011;45919;51.420;5.454;2022-09-12T00:36:21;37.65;;;22.80;;
59028;SDS011;45919;51.420;5.454;2022-09-12T00:37:24;38.40;;;23.48;;
59028;SDS011;45919;51.420;5.454;2022-09-12T00:38:26;33.72;;;21.45;;
59028;SDS011;45919;51.420;5.454;2022-09-12T00:39:27;39.20;;;23.05;;
59028;SDS011;45919;51.420;5.454;2022-09-12T00:40:29;36.67;;;22.52;;
59028;SDS011;45919;51.420;5.454;2022-09-12T00:41:34;37.85;;;21.63;;
59028;SDS011;45919;51.420;5.454;2022-09-12T00:42:38;30.35;;;20.42;;
59028;SDS011;45919;51.420;5.454;2022-09-12T00:43:41;34.38;;;21.52;;
59028;SDS011;45919;51.420;5.454;2022-09-12T00:44:46;36.45;;;21.48;;
59028;SDS011;45919;51.420;5.454;2022-09-12T00:45:50;32.88;;;20.48;;
59028;SDS011;45919;51.420;5.454;2022-09-12T00:46:52;33.90;;;20.65;;
59028;SDS011;45919;51.420;5.454;2022-09-12T00:48:02;36.55;;;22.50;;
59028;SDS011;45919;51.420;5.454;2022-09-12T00:49:07;33.95;;;21.20;;
59028;SDS011;45919;51.420;5.454;2022-09-12T00:50:16;39.30;;;21.55;;
59028;SDS011;45919;51.420;5.454;2022-09-12T00:51:18;34.33;;;21.38;;
59028;SDS011;45919;51.420;5.454;2022-09-12T00:52:22;34.67;;;21.02;;
59028;SDS011;45919;51.420;5.454;2022-09-12T00:53:25;33.03;;;21.63;;
59028;SDS011;45919;51.420;5.454;2022-09-12T00:54:29;35.15;;;21.55;;
59028;SDS011;45919;51.420;5.454;2022-09-12T00:55:38;32.85;;;21.63;;
59028;SDS011;45919;51.420;5.454;2022-09-12T00:56:43;35.28;;;21.33;;
59028;SDS011;45919;51.420;5.454;2022-09-12T00:57:53;35.60;;;20.52;;
59028;SDS011;45919;51.420;5.454;2022-09-12T00:59:01;35.13;;;22.43;;
59028;SDS011;45919;51.420;5.454;2022-09-12T01:00:12;33.45;;;21.20;;
59028;SDS011;45919;51.420;5.454;2022-09-12T01:01:15;34.83;;;21.58;;
59028;SDS011;45919;51.420;5.454;2022-09-12T01:02:17;41.22;;;22.85;;
59028;SDS011;45919;51.420;5.454;2022-09-12T01:03:20;37.58;;;23.02;;
59028;SDS011;45919;51.420;5.454;2022-09-12T01:04:23;36.17;;;21.35;;
59028;SDS011;45919;51.420;5.454;2022-09-12T01:05:28;32.88;;;20.75;;
59028;SDS011;45919;51.420;5.454;2022-09-12T01:06:32;36.58;;;22.00;;
59028;SDS011;45919;51.420;5.454;2022-09-12T01:07:38;35.42;;;21.73;;
59028;SDS011;45919;51.420;5.454;2022-09-12T01:08:40;36.90;;;23.08;;
59028;SDS011;45919;51.420;5.454;2022-09-12T01:09:43;35.42;;;21.30;;
59028;SDS011;45919;51.420;5.454;2022-09-12T01:10:46;40.17;;;23.70;;
59028;SDS011;45919;51.420;5.454;2022-09-12T01:11:49;41.45;;;23.35;;
59028;SDS011;45919;51.420;5.454;2022-09-12T01:12:53;39.20;;;22.25;;
59028;SDS011;45919;51.420;5.454;2022-09-12T01:13:54;36.10;;;23.77;;
59028;SDS011;45919;51.420;5.454;2022-09-12T01:14:56;40.17;;;23.98;;
59028;SDS011;45919;51.420;5.454;2022-09-12T01:15:58;42.35;;;24.08;;
59028;SDS011;45919;51.420;5.454;2022-09-12T01:16:59;41.45;;;24.42;;
59028;SDS011;45919;51.420;5.454;2022-09-12T01:19:17;39.03;;;24.65;;
59028;SDS011;45919;51.420;5.454;2022-09-12T01:23:10;37.28;;;22.17;;
59028;SDS011;45919;51.420;5.454;2022-09-12T01:27:15;39.03;;;23.10;;
59028;SDS011;45919;51.420;5.454;2022-09-12T01:34:01;45.00;;;25.48;;
59028;SDS011;45919;51.420;5.454;2022-09-12T01:38:30;42.15;;;24.23;;
59028;SDS011;45919;51.420;5.454;2022-09-12T01:43:08;40.67;;;23.20;;
59028;SDS011;45919;51.420;5.454;2022-09-12T01:47:09;39.88;;;23.40;;
59028;SDS011;45919;51.420;5.454;2022-09-12T01:48:19;43.45;;;24.58;;
59028;SDS011;45919;51.420;5.454;2022-09-12T01:50:39;44.28;;;25.42;;
59028;SDS011;45919;51.420;5.454;2022-09-12T01:51:52;41.80;;;25.45;;
59028;SDS011;45919;51.420;5.454;2022-09-12T01:52:58;47.80;;;26.83;;
59028;SDS011;45919;51.420;5.454;2022-09-12T01:54:09;46.25;;;25.50;;
59028;SDS011;45919;51.420;5.454;2022-09-12T01:55:27;40.42;;;23.58;;
59028;SDS011;45919;51.420;5.454;2022-09-12T01:56:31;43.78;;;25.23;;
59028;SDS011;45919;51.420;5.454;2022-09-12T01:57:39;43.63;;;25.33;;
59028;SDS011;45919;51.420;5.454;2022-09-12T01:58:58;45.13;;;26.20;;
59028;SDS011;45919;51.420;5.454;2022-09-12T02:00:06;45.00;;;26.02;;
59028;SDS011;45919;51.420;5.454;2022-09-12T02:02:20;46.40;;;26.20;;
59028;SDS011;45919;51.420;5.454;2022-09-12T02:03:39;38.67;;;23.05;;
59028;SDS011;45919;51.420;5.454;2022-09-12T02:06:05;43.10;;;24.63;;
59028;SDS011;45919;51.420;5.454;2022-09-12T02:07:12;40.65;;;23.83;;
59028;SDS011;45919;51.420;5.454;2022-09-12T02:08:21;43.50;;;25.52;;
59028;SDS011;45919;51.420;5.454;2022-09-12T02:09:35;41.45;;;24.58;;
59028;SDS011;45919;51.420;5.454;2022-09-12T02:10:50;41.45;;;24.80;;
59028;SDS011;45919;51.420;5.454;2022-09-12T02:11:56;43.13;;;24.65;;
59028;SDS011;45919;51.420;5.454;2022-09-12T02:13:03;43.35;;;24.60;;
59028;SDS011;45919;51.420;5.454;2022-09-12T02:14:12;40.75;;;23.95;;
59028;SDS011;45919;51.420;5.454;2022-09-12T02:15:19;44.13;;;24.42;;
59028;SDS011;45919;51.420;5.454;2022-09-12T02:16:25;38.72;;;23.33;;
59028;SDS011;45919;51.420;5.454;2022-09-12T02:17:37;40.78;;;23.75;;
59028;SDS011;45919;51.420;5.454;2022-09-12T02:18:43;37.58;;;23.17;;
59028;SDS011;45919;51.420;5.454;2022-09-12T02:19:52;41.22;;;24.40;;
59028;SDS011;45919;51.420;5.454;2022-09-12T02:20:58;43.05;;;25.33;;
59028;SDS011;45919;51.420;5.454;2022-09-12T02:22:01;44.50;;;25.90;;
59028;SDS011;45919;51.420;5.454;2022-09-12T02:23:05;42.78;;;25.80;;
59028;SDS011;45919;51.420;5.454;2022-09-12T02:24:11;45.53;;;25.77;;
59028;SDS011;45919;51.420;5.454;2022-09-12T02:25:15;39.38;;;23.98;;
59028;SDS011;45919;51.420;5.454;2022-09-12T02:26:21;42.67;;;25.30;;
59028;SDS011;45919;51.420;5.454;2022-09-12T02:28:39;40.88;;;24.92;;
59028;SDS011;45919;51.420;5.454;2022-09-12T02:29:43;43.50;;;25.08;;
59028;SDS011;45919;51.420;5.454;2022-09-12T02:32:15;42.97;;;25.33;;
59028;SDS011;45919;51.420;5.454;2022-09-12T02:33:26;43.33;;;25.33;;
59028;SDS011;45919;51.420;5.454;2022-09-12T02:34:43;46.30;;;25.38;;
59028;SDS011;45919;51.420;5.454;2022-09-12T02:35:52;42.70;;;25.42;;
59028;SDS011;45919;51.420;5.454;2022-09-12T02:37:20;39.13;;;24.48;;
59028;SDS011;45919;51.420;5.454;2022-09-12T02:38:42;48.78;;;26.42;;
59028;SDS011;45919;51.420;5.454;2022-09-12T02:39:46;45.33;;;25.90;;
59028;SDS011;45919;51.420;5.454;2022-09-12T02:40:48;49.75;;;26.85;;
59028;SDS011;45919;51.420;5.454;2022-09-12T02:41:49;48.05;;;27.30;;
59028;SDS011;45919;51.420;5.454;2022-09-12T02:42:53;51.03;;;26.10;;
59028;SDS011;45919;51.420;5.454;2022-09-12T02:43:54;44.13;;;26.25;;
59028;SDS011;45919;51.420;5.454;2022-09-12T02:44:56;47.58;;;26.50;;
59028;SDS011;45919;51.420;5.454;2022-09-12T02:45:57;47.10;;;27.20;;
59028;SDS011;45919;51.420;5.454;2022-09-12T02:47:01;46.05;;;26.35;;
59028;SDS011;45919;51.420;5.454;2022-09-12T02:48:14;41.17;;;26.25;;
59028;SDS011;45919;51.420;5.454;2022-09-12T02:49:21;44.22;;;25.75;;
59028;SDS011;45919;51.420;5.454;2022-09-12T02:50:23;44.47;;;24.88;;
59028;SDS011;45919;51.420;5.454;2022-09-12T02:51:25;46.95;;;25.70;;
59028;SDS011;45919;51.420;5.454;2022-09-12T02:52:27;44.47;;;25.70;;
59028;SDS011;45919;51.420;5.454;2022-09-12T02:53:29;41.72;;;25.10;;
59028;SDS011;45919;51.420;5.454;2022-09-12T02:54:31;47.83;;;25.95;;
59028;SDS011;45919;51.420;5.454;2022-09-12T02:55:34;46.05;;;26.48;;
59028;SDS011;45919;51.420;5.454;2022-09-12T02:56:39;46.30;;;26.55;;
59028;SDS011;45919;51.420;5.454;2022-09-12T02:57:42;42.78;;;25.50;;
59028;SDS011;45919;51.420;5.454;2022-09-12T02:58:44;48.20;;;25.60;;
59028;SDS011;45919;51.420;5.454;2022-09-12T02:59:46;42.88;;;24.98;;
59028;SDS011;45919;51.420;5.454;2022-09-12T03:06:02;45.60;;;26.60;;
59028;SDS011;45919;51.420;5.454;2022-09-12T03:07:22;46.63;;;26.52;;
59028;SDS011;45919;51.420;5.454;2022-09-12T03:09:44;52.58;;;27.95;;
59028;SDS011;45919;51.420;5.454;2022-09-12T03:11:02;49.65;;;27.38;;
59028;SDS011;45919;51.420;5.454;2022-09-12T03:22:16;48.42;;;26.27;;
59028;SDS011;45919;51.420;5.454;2022-09-12T03:23:29;53.10;;;28.08;;
59028;SDS011;45919;51.420;5.454;2022-09-12T03:24:42;48.78;;;26.98;;
59028;SDS011;45919;51.420;5.454;2022-09-12T03:25:56;48.92;;;27.83;;
59028;SDS011;45919;51.420;5.454;2022-09-12T03:27:09;52.53;;;28.25;;
59028;SDS011;45919;51.420;5.454;2022-09-12T03:28:16;46.55;;;26.70;;
59028;SDS011;45919;51.420;5.454;2022-09-12T03:29:20;47.40;;;27.08;;
59028;SDS011;45919;51.420;5.454;2022-09-12T03:30:24;48.25;;;27.48;;
59028;SDS011;45919;51.420;5.454;2022-09-12T03:31:26;48.20;;;27.65;;
59028;SDS011;45919;51.420;5.454;2022-09-12T03:32:43;51.55;;;28.23;;
59028;SDS011;45919;51.420;5.454;2022-09-12T03:33:48;47.58;;;26.50;;
59028;SDS011;45919;51.420;5.454;2022-09-12T03:34:49;45.28;;;27.25;;
59028;SDS011;45919;51.420;5.454;2022-09-12T03:35:51;49.20;;;27.85;;
59028;SDS011;45919;51.420;5.454;2022-09-12T03:36:55;46.45;;;25.48;;
59028;SDS011;45919;51.420;5.454;2022-09-12T03:37:57;41.05;;;25.08;;
59028;SDS011;45919;51.420;5.454;2022-09-12T03:38:58;49.72;;;27.92;;
59028;SDS011;45919;51.420;5.454;2022-09-12T03:40:00;46.75;;;27.00;;
59028;SDS011;45919;51.420;5.454;2022-09-12T03:41:02;47.13;;;27.90;;
59028;SDS011;45919;51.420;5.454;2022-09-12T03:42:03;48.08;;;27.90;;
59028;SDS011;45919;51.420;5.454;2022-09-12T03:43:05;45.30;;;26.70;;
59028;SDS011;45919;51.420;5.454;2022-09-12T03:44:08;45.17;;;26.08;;
59028;SDS011;45919;51.420;5.454;2022-09-12T03:45:10;46.92;;;26.65;;
59028;SDS011;45919;51.420;5.454;2022-09-12T03:46:12;47.00;;;27.77;;
59028;SDS011;45919;51.420;5.454;2022-09-12T03:47:14;47.28;;;26.45;;
59028;SDS011;45919;51.420;5.454;2022-09-12T03:48:15;46.50;;;26.58;;
59028;SDS011;45919;51.420;5.454;2022-09-12T03:49:17;48.58;;;25.48;;
59028;SDS011;45919;51.420;5.454;2022-09-12T03:50:19;47.70;;;27.55;;
59028;SDS011;45919;51.420;5.454;2022-09-12T03:51:20;46.42;;;26.35;;
59028;SDS011;45919;51.420;5.454;2022-09-12T03:52:22;49.33;;;28.25;;
59028;SDS011;45919;51.420;5.454;2022-09-12T03:53:24;47.85;;;26.20;;
59028;SDS011;45919;51.420;5.454;2022-09-12T03:54:25;47.30;;;26.52;;
59028;SDS011;45919;51.420;5.454;2022-09-12T03:55:27;47.78;;;27.15;;
59028;SDS011;45919;51.420;5.454;2022-09-12T03:56:28;45.35;;;26.85;;
59028;SDS011;45919;51.420;5.454;2022-09-12T03:57:30;48.00;;;27.25;;
59028;SDS011;45919;51.420;5.454;2022-09-12T03:58:32;46.20;;;26.05;;
59028;SDS011;45919;51.420;5.454;2022-09-12T03:59:35;43.70;;;24.33;;
59028;SDS011;45919;51.420;5.454;2022-09-12T04:00:38;45.03;;;25.75;;
59028;SDS011;45919;51.420;5.454;2022-09-12T04:01:39;43.03;;;25.63;;
59028;SDS011;45919;51.420;5.454;2022-09-12T04:02:42;46.67;;;26.85;;
59028;SDS011;45919;51.420;5.454;2022-09-12T04:03:45;46.45;;;25.45;;
59028;SDS011;45919;51.420;5.454;2022-09-12T04:04:48;47.65;;;26.83;;
59028;SDS011;45919;51.420;5.454;2022-09-12T04:05:49;43.30;;;25.73;;
59028;SDS011;45919;51.420;5.454;2022-09-12T04:06:51;43.88;;;24.95;;
59028;SDS011;45919;51.420;5.454;2022-09-12T04:07:52;41.60;;;24.15;;
59028;SDS011;45919;51.420;5.454;2022-09-12T04:08:54;42.60;;;24.60;;
59028;SDS011;45919;51.420;5.454;2022-09-12T04:09:56;45.15;;;25.20;;
59028;SDS011;45919;51.420;5.454;2022-09-12T04:11:04;43.95;;;25.73;;
59028;SDS011;45919;51.420;5.454;2022-09-12T04:12:07;44.78;;;26.33;;
59028;SDS011;45919;51.420;5.454;2022-09-12T04:13:09;46.97;;;27.17;;
59028;SDS011;45919;51.420;5.454;2022-09-12T04:14:10;44.42;;;25.67;;
59028;SDS011;45919;51.420;5.454;2022-09-12T04:15:12;48.00;;;26.00;;
59028;SDS011;45919;51.420;5.454;2022-09-12T04:16:14;50.35;;;27.48;;
59028;SDS011;45919;51.420;5.454;2022-09-12T04:17:16;44.17;;;25.70;;
59028;SDS011;45919;51.420;5.454;2022-09-12T04:18:18;44.67;;;25.90;;
59028;SDS011;45919;51.420;5.454;2022-09-12T04:19:19;44.28;;;26.40;;
59028;SDS011;45919;51.420;5.454;2022-09-12T04:20:21;42.85;;;24.83;;
59028;SDS011;45919;51.420;5.454;2022-09-12T04:21:23;46.88;;;26.70;;
59028;SDS011;45919;51.420;5.454;2022-09-12T04:22:24;44.38;;;24.92;;
59028;SDS011;45919;51.420;5.454;2022-09-12T04:23:26;45.95;;;26.40;;
59028;SDS011;45919;51.420;5.454;2022-09-12T04:24:28;47.22;;;26.52;;
59028;SDS011;45919;51.420;5.454;2022-09-12T04:25:29;46.80;;;26.60;;
59028;SDS011;45919;51.420;5.454;2022-09-12T04:26:31;45.13;;;26.60;;
59028;SDS011;45919;51.420;5.454;2022-09-12T04:27:33;46.33;;;25.38;;
59028;SDS011;45919;51.420;5.454;2022-09-12T04:28:35;49.47;;;26.38;;
59028;SDS011;45919;51.420;5.454;2022-09-12T04:29:38;45.38;;;25.95;;
59028;SDS011;45919;51.420;5.454;2022-09-12T04:30:40;47.25;;;26.23;;
59028;SDS011;45919;51.420;5.454;2022-09-12T04:31:41;43.92;;;25.30;;
59028;SDS011;45919;51.420;5.454;2022-09-12T04:32:43;48.00;;;26.33;;
59028;SDS011;45919;51.420;5.454;2022-09-12T04:33:45;43.35;;;25.48;;
59028;SDS011;45919;51.420;5.454;2022-09-12T04:34:47;48.72;;;27.17;;
59028;SDS011;45919;51.420;5.454;2022-09-12T04:35:48;53.28;;;27.70;;
59028;SDS011;45919;51.420;5.454;2022-09-12T04:36:50;47.10;;;26.42;;
59028;SDS011;45919;51.420;5.454;2022-09-12T04:37:52;44.55;;;26.20;;
59028;SDS011;45919;51.420;5.454;2022-09-12T04:38:54;47.03;;;26.58;;
59028;SDS011;45919;51.420;5.454;2022-09-12T04:39:56;45.78;;;25.85;;
59028;SDS011;45919;51.420;5.454;2022-09-12T04:40:57;45.58;;;25.98;;
59028;SDS011;45919;51.420;5.454;2022-09-12T04:41:59;46.38;;;26.45;;
59028;SDS011;45919;51.420;5.454;2022-09-12T04:43:01;44.78;;;26.05;;
59028;SDS011;45919;51.420;5.454;2022-09-12T04:44:03;50.95;;;26.77;;
59028;SDS011;45919;51.420;5.454;2022-09-12T04:45:11;47.50;;;26.70;;
59028;SDS011;45919;51.420;5.454;2022-09-12T04:46:14;42.08;;;24.65;;
59028;SDS011;45919;51.420;5.454;2022-09-12T04:47:19;46.30;;;25.17;;
59028;SDS011;45919;51.420;5.454;2022-09-12T04:48:21;45.72;;;25.30;;
59028;SDS011;45919;51.420;5.454;2022-09-12T04:49:22;47.80;;;24.98;;
59028;SDS011;45919;51.420;5.454;2022-09-12T04:50:24;47.33;;;26.50;;
59028;SDS011;45919;51.420;5.454;2022-09-12T04:51:27;49.08;;;25.25;;
59028;SDS011;45919;51.420;5.454;2022-09-12T04:52:31;43.90;;;25.40;;
59028;SDS011;45919;51.420;5.454;2022-09-12T04:53:32;46.67;;;24.67;;
59028;SDS011;45919;51.420;5.454;2022-09-12T04:54:34;45.40;;;25.85;;
59028;SDS011;45919;51.420;5.454;2022-09-12T04:55:36;47.92;;;25.83;;
59028;SDS011;45919;51.420;5.454;2022-09-12T04:56:38;45.10;;;25.23;;
59028;SDS011;45919;51.420;5.454;2022-09-12T04:57:40;48.63;;;26.00;;
59028;SDS011;45919;51.420;5.454;2022-09-12T04:58:43;43.00;;;24.23;;
59028;SDS011;45919;51.420;5.454;2022-09-12T04:59:44;44.55;;;24.67;;
59028;SDS011;45919;51.420;5.454;2022-09-12T05:00:46;40.95;;;25.25;;
59028;SDS011;45919;51.420;5.454;2022-09-12T05:01:48;47.15;;;25.98;;
59028;SDS011;45919;51.420;5.454;2022-09-12T05:02:49;45.78;;;25.85;;
59028;SDS011;45919;51.420;5.454;2022-09-12T05:03:51;46.15;;;25.77;;
59028;SDS011;45919;51.420;5.454;2022-09-12T05:04:53;48.10;;;25.00;;
59028;SDS011;45919;51.420;5.454;2022-09-12T05:05:54;44.30;;;24.92;;
59028;SDS011;45919;51.420;5.454;2022-09-12T05:06:56;46.70;;;25.73;;
59028;SDS011;45919;51.420;5.454;2022-09-12T05:07:58;43.95;;;25.65;;
59028;SDS011;45919;51.420;5.454;2022-09-12T05:09:00;44.05;;;24.55;;
59028;SDS011;45919;51.420;5.454;2022-09-12T05:10:03;45.92;;;26.52;;
59028;SDS011;45919;51.420;5.454;2022-09-12T05:11:05;46.92;;;26.33;;
59028;SDS011;45919;51.420;5.454;2022-09-12T05:12:12;45.47;;;25.92;;
59028;SDS011;45919;51.420;5.454;2022-09-12T05:13:14;44.03;;;24.75;;
59028;SDS011;45919;51.420;5.454;2022-09-12T05:14:16;43.22;;;24.73;;
59028;SDS011;45919;51.420;5.454;2022-09-12T05:15:17;47.13;;;25.50;;
59028;SDS011;45919;51.420;5.454;2022-09-12T05:16:19;46.60;;;25.23;;
59028;SDS011;45919;51.420;5.454;2022-09-12T05:17:22;40.92;;;23.80;;
59028;SDS011;45919;51.420;5.454;2022-09-12T05:18:23;47.30;;;26.10;;
59028;SDS011;45919;51.420;5.454;2022-09-12T05:19:27;44.22;;;24.95;;
59028;SDS011;45919;51.420;5.454;2022-09-12T05:20:31;43.90;;;24.48;;
59028;SDS011;45919;51.420;5.454;2022-09-12T05:21:33;41.50;;;24.15;;
59028;SDS011;45919;51.420;5.454;2022-09-12T05:22:35;46.65;;;25.52;;
59028;SDS011;45919;51.420;5.454;2022-09-12T05:23:36;47.83;;;26.10;;
59028;SDS011;45919;51.420;5.454;2022-09-12T05:24:38;48.78;;;27.65;;
59028;SDS011;45919;51.420;5.454;2022-09-12T05:25:48;43.92;;;24.10;;
59028;SDS011;45919;51.420;5.454;2022-09-12T05:26:51;40.88;;;23.95;;
59028;SDS011;45919;51.420;5.454;2022-09-12T05:27:52;46.22;;;25.33;;
59028;SDS011;45919;51.420;5.454;2022-09-12T05:28:54;41.17;;;24.45;;
59028;SDS011;45919;51.420;5.454;2022-09-12T05:29:55;43.88;;;24.67;;
59028;SDS011;45919;51.420;5.454;2022-09-12T05:32:06;40.85;;;24.98;;
59028;SDS011;45919;51.420;5.454;2022-09-12T05:33:09;43.80;;;25.25;;
59028;SDS011;45919;51.420;5.454;2022-09-12T05:34:11;40.55;;;24.75;;
59028;SDS011;45919;51.420;5.454;2022-09-12T05:35:13;39.97;;;24.25;;
59028;SDS011;45919;51.420;5.454;2022-09-12T05:36:16;47.92;;;26.52;;
59028;SDS011;45919;51.420;5.454;2022-09-12T05:37:22;47.17;;;24.80;;
59028;SDS011;45919;51.420;5.454;2022-09-12T05:38:24;45.22;;;25.48;;
59028;SDS011;45919;51.420;5.454;2022-09-12T05:39:26;44.60;;;25.13;;
59028;SDS011;45919;51.420;5.454;2022-09-12T05:40:27;41.17;;;24.98;;
59028;SDS011;45919;51.420;5.454;2022-09-12T05:41:29;45.28;;;24.70;;
59028;SDS011;45919;51.420;5.454;2022-09-12T05:42:33;43.72;;;25.80;;
59028;SDS011;45919;51.420;5.454;2022-09-12T05:43:35;41.92;;;25.10;;
59028;SDS011;45919;51.420;5.454;2022-09-12T05:44:38;45.42;;;25.35;;
59028;SDS011;45919;51.420;5.454;2022-09-12T05:45:39;44.03;;;25.23;;
59028;SDS011;45919;51.420;5.454;2022-09-12T05:46:42;43.25;;;25.77;;
59028;SDS011;45919;51.420;5.454;2022-09-12T05:47:45;44.80;;;24.75;;
59028;SDS011;45919;51.420;5.454;2022-09-12T05:48:47;43.97;;;26.13;;
59028;SDS011;45919;51.420;5.454;2022-09-12T05:49:52;45.38;;;24.65;;
59028;SDS011;45919;51.420;5.454;2022-09-12T05:50:58;45.78;;;25.75;;
59028;SDS011;45919;51.420;5.454;2022-09-12T05:52:19;49.22;;;26.05;;
59028;SDS011;45919;51.420;5.454;2022-09-12T05:53:21;46.13;;;25.73;;
59028;SDS011;45919;51.420;5.454;2022-09-12T05:54:22;44.17;;;24.92;;
59028;SDS011;45919;51.420;5.454;2022-09-12T05:55:25;42.42;;;25.58;;
59028;SDS011;45919;51.420;5.454;2022-09-12T05:56:28;43.65;;;25.45;;
59028;SDS011;45919;51.420;5.454;2022-09-12T05:57:32;43.17;;;25.92;;
59028;SDS011;45919;51.420;5.454;2022-09-12T05:58:34;43.53;;;25.95;;
59028;SDS011;45919;51.420;5.454;2022-09-12T05:59:36;45.72;;;25.25;;
59028;SDS011;45919;51.420;5.454;2022-09-12T06:00:38;48.45;;;25.38;;
59028;SDS011;45919;51.420;5.454;2022-09-12T06:01:40;43.67;;;25.38;;
59028;SDS011;45919;51.420;5.454;2022-09-12T06:02:42;42.60;;;25.90;;
59028;SDS011;45919;51.420;5.454;2022-09-12T06:03:44;47.53;;;26.30;;
59028;SDS011;45919;51.420;5.454;2022-09-12T06:04:48;45.50;;;25.65;;
59028;SDS011;45919;51.420;5.454;2022-09-12T06:05:49;48.58;;;26.58;;
59028;SDS011;45919;51.420;5.454;2022-09-12T06:06:51;47.78;;;26.02;;
59028;SDS011;45919;51.420;5.454;2022-09-12T06:07:52;45.55;;;26.63;;
59028;SDS011;45919;51.420;5.454;2022-09-12T06:08:58;45.00;;;25.45;;
59028;SDS011;45919;51.420;5.454;2022-09-12T06:10:02;44.40;;;24.67;;
59028;SDS011;45919;51.420;5.454;2022-09-12T06:11:05;43.85;;;26.73;;
59028;SDS011;45919;51.420;5.454;2022-09-12T06:12:07;44.70;;;24.73;;
59028;SDS011;45919;51.420;5.454;2022-09-12T06:13:09;45.45;;;26.73;;
59028;SDS011;45919;51.420;5.454;2022-09-12T06:14:11;46.83;;;27.23;;
59028;SDS011;45919;51.420;5.454;2022-09-12T06:15:15;43.47;;;25.70;;
59028;SDS011;45919;51.420;5.454;2022-09-12T06:18:33;43.53;;;24.33;;
59028;SDS011;45919;51.420;5.454;2022-09-12T06:19:38;44.13;;;24.20;;
59028;SDS011;45919;51.420;5.454;2022-09-12T06:20:40;47.83;;;26.10;;
59028;SDS011;45919;51.420;5.454;2022-09-12T06:21:41;43.25;;;25.42;;
59028;SDS011;45919;51.420;5.454;2022-09-12T06:22:43;45.63;;;25.60;;
59028;SDS011;45919;51.420;5.454;2022-09-12T06:23:45;41.58;;;24.90;;
59028;SDS011;45919;51.420;5.454;2022-09-12T06:24:48;42.50;;;24.77;;
59028;SDS011;45919;51.420;5.454;2022-09-12T06:25:49;43.50;;;25.55;;
59028;SDS011;45919;51.420;5.454;2022-09-12T06:26:52;42.25;;;25.55;;
59028;SDS011;45919;51.420;5.454;2022-09-12T06:27:53;45.65;;;26.52;;
59028;SDS011;45919;51.420;5.454;2022-09-12T06:28:56;46.25;;;25.77;;
59028;SDS011;45919;51.420;5.454;2022-09-12T06:29:59;42.00;;;25.10;;
59028;SDS011;45919;51.420;5.454;2022-09-12T06:31:11;44.15;;;24.65;;
59028;SDS011;45919;51.420;5.454;2022-09-12T06:32:23;43.42;;;24.80;;
59028;SDS011;45919;51.420;5.454;2022-09-12T06:33:25;39.75;;;23.75;;
59028;SDS011;45919;51.420;5.454;2022-09-12T06:34:26;47.83;;;26.33;;
59028;SDS011;45919;51.420;5.454;2022-09-12T06:35:28;42.47;;;25.80;;
59028;SDS011;45919;51.420;5.454;2022-09-12T06:36:30;41.30;;;23.65;;
59028;SDS011;45919;51.420;5.454;2022-09-12T06:37:34;41.58;;;25.23;;
59028;SDS011;45919;51.420;5.454;2022-09-12T06:38:35;43.28;;;25.42;;
59028;SDS011;45919;51.420;5.454;2022-09-12T06:39:37;44.53;;;25.67;;
59028;SDS011;45919;51.420;5.454;2022-09-12T06:40:42;39.95;;;25.05;;
59028;SDS011;45919;51.420;5.454;2022-09-12T06:41:45;45.42;;;25.05;;
59028;SDS011;45919;51.420;5.454;2022-09-12T06:42:47;41.72;;;24.75;;
59028;SDS011;45919;51.420;5.454;2022-09-12T06:43:48;43.47;;;26.35;;
59028;SDS011;45919;51.420;5.454;2022-09-12T06:44:50;43.83;;;25.98;;
59028;SDS011;45919;51.420;5.454;2022-09-12T06:45:52;42.00;;;25.55;;
59028;SDS011;45919;51.420;5.454;2022-09-12T06:46:54;43.58;;;25.95;;
59028;SDS011;45919;51.420;5.454;2022-09-12T06:47:55;47.92;;;26.75;;
59028;SDS011;45919;51.420;5.454;2022-09-12T06:48:58;43.78;;;25.30;;
59028;SDS011;45919;51.420;5.454;2022-09-12T06:50:00;44.00;;;25.58;;
59028;SDS011;45919;51.420;5.454;2022-09-12T06:51:05;43.58;;;25.38;;
59028;SDS011;45919;51.420;5.454;2022-09-12T06:52:09;45.03;;;25.63;;
59028;SDS011;45919;51.420;5.454;2022-09-12T06:53:11;43.65;;;26.02;;
59028;SDS011;45919;51.420;5.454;2022-09-12T06:54:13;47.28;;;27.02;;
59028;SDS011;45919;51.420;5.454;2022-09-12T06:55:17;46.47;;;24.77;;
59028;SDS011;45919;51.420;5.454;2022-09-12T06:56:20;41.55;;;25.52;;
59028;SDS011;45919;51.420;5.454;2022-09-12T06:57:23;39.25;;;25.17;;
59028;SDS011;45919;51.420;5.454;2022-09-12T06:58:26;43.22;;;24.67;;
59028;SDS011;45919;51.420;5.454;2022-09-12T06:59:28;44.08;;;25.05;;
59028;SDS011;45919;51.420;5.454;2022-09-12T07:00:30;42.55;;;24.35;;
59028;SDS011;45919;51.420;5.454;2022-09-12T07:01:32;40.85;;;23.95;;
59028;SDS011;45919;51.420;5.454;2022-09-12T07:02:34;43.72;;;25.38;;